sensor_id;sensor_type;location;lat;lon;timestamp;P1;durP1;ratioP1;P2;durP2;ratioP2
55720;SDS011;41626;53.098;6.168;2023-04-15T00:00:45;8.93;;;4.47;;
55720;SDS011;41626;53.098;6.168;2023-04-15T00:03:11;9.93;;;4.10;;
55720;SDS011;41626;53.098;6.168;2023-04-15T00:05:36;9.55;;;4.70;;
55720;SDS011;41626;53.098;6.168;2023-04-15T00:08:02;9.70;;;4.22;;
55720;SDS011;41626;53.098;6.168;2023-04-15T00:10:28;9.10;;;4.10;;
55720;SDS011;41626;53.098;6.168;2023-04-15T00:12:53;9.98;;;4.47;;
55720;SDS011;41626;53.098;6.168;2023-04-15T00:15:19;11.93;;;5.32;;
55720;SDS011;41626;53.098;6.168;2023-04-15T00:17:45;11.60;;;5.10;;
55720;SDS011;41626;53.098;6.168;2023-04-15T00:20:11;9.77;;;4.40;;
55720;SDS011;41626;53.098;6.168;2023-04-15T00:22:36;9.70;;;4.97;;
55720;SDS011;41626;53.098;6.168;2023-04-15T00:25:02;12.45;;;5.03;;
55720;SDS011;41626;53.098;6.168;2023-04-15T00:27:28;8.50;;;3.78;;
55720;SDS011;41626;53.098;6.168;2023-04-15T00:29:54;10.85;;;4.57;;
55720;SDS011;41626;53.098;6.168;2023-04-15T00:32:20;12.77;;;4.47;;
55720;SDS011;41626;53.098;6.168;2023-04-15T00:34:46;10.53;;;5.03;;
55720;SDS011;41626;53.098;6.168;2023-04-15T00:37:11;8.70;;;4.90;;
55720;SDS011;41626;53.098;6.168;2023-04-15T00:39:37;11.60;;;5.27;;
55720;SDS011;41626;53.098;6.168;2023-04-15T00:42:03;9.50;;;4.53;;
55720;SDS011;41626;53.098;6.168;2023-04-15T00:44:29;11.73;;;5.38;;
55720;SDS011;41626;53.098;6.168;2023-04-15T00:46:56;8.70;;;4.50;;
55720;SDS011;41626;53.098;6.168;2023-04-15T00:49:22;12.70;;;6.10;;
55720;SDS011;41626;53.098;6.168;2023-04-15T00:51:48;11.65;;;6.03;;
55720;SDS011;41626;53.098;6.168;2023-04-15T00:54:14;10.35;;;4.60;;
55720;SDS011;41626;53.098;6.168;2023-04-15T00:56:40;11.10;;;4.95;;
55720;SDS011;41626;53.098;6.168;2023-04-15T00:59:06;9.13;;;4.93;;
55720;SDS011;41626;53.098;6.168;2023-04-15T01:01:36;10.43;;;5.80;;
55720;SDS011;41626;53.098;6.168;2023-04-15T01:04:02;9.35;;;5.57;;
55720;SDS011;41626;53.098;6.168;2023-04-15T01:06:31;9.63;;;5.20;;
55720;SDS011;41626;53.098;6.168;2023-04-15T01:08:57;11.73;;;5.63;;
55720;SDS011;41626;53.098;6.168;2023-04-15T01:11:24;10.85;;;5.88;;
55720;SDS011;41626;53.098;6.168;2023-04-15T01:13:51;12.50;;;5.95;;
55720;SDS011;41626;53.098;6.168;2023-04-15T01:16:17;9.85;;;5.68;;
55720;SDS011;41626;53.098;6.168;2023-04-15T01:18:44;12.33;;;6.77;;
55720;SDS011;41626;53.098;6.168;2023-04-15T01:21:10;13.13;;;6.90;;
55720;SDS011;41626;53.098;6.168;2023-04-15T01:23:36;10.65;;;6.03;;
55720;SDS011;41626;53.098;6.168;2023-04-15T01:26:03;11.52;;;7.10;;
55720;SDS011;41626;53.098;6.168;2023-04-15T01:28:32;12.85;;;6.95;;
55720;SDS011;41626;53.098;6.168;2023-04-15T01:31:04;10.20;;;6.50;;
55720;SDS011;41626;53.098;6.168;2023-04-15T01:33:31;11.95;;;6.85;;
55720;SDS011;41626;53.098;6.168;2023-04-15T01:35:57;12.93;;;7.00;;
55720;SDS011;41626;53.098;6.168;2023-04-15T01:38:22;13.43;;;7.25;;
55720;SDS011;41626;53.098;6.168;2023-04-15T01:40:49;11.23;;;6.45;;
55720;SDS011;41626;53.098;6.168;2023-04-15T01:43:15;14.63;;;7.03;;
55720;SDS011;41626;53.098;6.168;2023-04-15T01:45:41;9.60;;;6.10;;
55720;SDS011;41626;53.098;6.168;2023-04-15T01:48:07;11.87;;;6.70;;
55720;SDS011;41626;53.098;6.168;2023-04-15T01:50:33;9.77;;;7.38;;
55720;SDS011;41626;53.098;6.168;2023-04-15T01:53:00;13.90;;;7.85;;
55720;SDS011;41626;53.098;6.168;2023-04-15T01:55:26;14.32;;;7.32;;
55720;SDS011;41626;53.098;6.168;2023-04-15T01:57:52;10.47;;;7.80;;
55720;SDS011;41626;53.098;6.168;2023-04-15T02:00:17;11.33;;;7.63;;
55720;SDS011;41626;53.098;6.168;2023-04-15T02:02:43;12.30;;;8.00;;
55720;SDS011;41626;53.098;6.168;2023-04-15T02:05:09;12.13;;;7.13;;
55720;SDS011;41626;53.098;6.168;2023-04-15T02:07:35;12.43;;;8.40;;
55720;SDS011;41626;53.098;6.168;2023-04-15T02:10:01;12.50;;;8.35;;
55720;SDS011;41626;53.098;6.168;2023-04-15T02:12:28;14.65;;;8.02;;
55720;SDS011;41626;53.098;6.168;2023-04-15T02:14:54;12.88;;;9.30;;
55720;SDS011;41626;53.098;6.168;2023-04-15T02:17:20;12.00;;;7.90;;
55720;SDS011;41626;53.098;6.168;2023-04-15T02:19:45;13.38;;;9.07;;
55720;SDS011;41626;53.098;6.168;2023-04-15T02:22:12;18.73;;;10.52;;
55720;SDS011;41626;53.098;6.168;2023-04-15T02:24:42;17.27;;;9.95;;
55720;SDS011;41626;53.098;6.168;2023-04-15T02:27:08;13.13;;;8.95;;
55720;SDS011;41626;53.098;6.168;2023-04-15T02:29:34;15.48;;;9.25;;
55720;SDS011;41626;53.098;6.168;2023-04-15T02:31:59;11.27;;;8.43;;
55720;SDS011;41626;53.098;6.168;2023-04-15T02:34:25;11.80;;;9.43;;
55720;SDS011;41626;53.098;6.168;2023-04-15T02:36:51;14.52;;;8.60;;
55720;SDS011;41626;53.098;6.168;2023-04-15T02:39:21;15.77;;;9.52;;
55720;SDS011;41626;53.098;6.168;2023-04-15T02:41:47;12.20;;;9.63;;
55720;SDS011;41626;53.098;6.168;2023-04-15T02:44:16;11.98;;;9.32;;
55720;SDS011;41626;53.098;6.168;2023-04-15T02:46:45;14.50;;;9.50;;
55720;SDS011;41626;53.098;6.168;2023-04-15T02:49:14;11.88;;;9.65;;
55720;SDS011;41626;53.098;6.168;2023-04-15T02:51:40;16.50;;;9.10;;
55720;SDS011;41626;53.098;6.168;2023-04-15T02:54:06;15.25;;;10.10;;
55720;SDS011;41626;53.098;6.168;2023-04-15T02:56:32;12.10;;;9.05;;
55720;SDS011;41626;53.098;6.168;2023-04-15T02:58:58;15.18;;;9.73;;
55720;SDS011;41626;53.098;6.168;2023-04-15T03:01:24;12.30;;;9.27;;
55720;SDS011;41626;53.098;6.168;2023-04-15T03:03:50;14.53;;;9.83;;
55720;SDS011;41626;53.098;6.168;2023-04-15T03:06:16;12.90;;;9.43;;
55720;SDS011;41626;53.098;6.168;2023-04-15T03:08:41;15.47;;;9.83;;
55720;SDS011;41626;53.098;6.168;2023-04-15T03:11:07;15.57;;;11.60;;
55720;SDS011;41626;53.098;6.168;2023-04-15T03:13:33;15.53;;;9.83;;
55720;SDS011;41626;53.098;6.168;2023-04-15T03:15:58;13.53;;;10.17;;
55720;SDS011;41626;53.098;6.168;2023-04-15T03:18:24;29.17;;;11.50;;
55720;SDS011;41626;53.098;6.168;2023-04-15T03:20:50;14.57;;;10.98;;
55720;SDS011;41626;53.098;6.168;2023-04-15T03:23:15;13.20;;;10.33;;
55720;SDS011;41626;53.098;6.168;2023-04-15T03:25:41;15.13;;;10.27;;
55720;SDS011;41626;53.098;6.168;2023-04-15T03:28:08;11.40;;;10.20;;
55720;SDS011;41626;53.098;6.168;2023-04-15T03:30:34;12.07;;;10.30;;
55720;SDS011;41626;53.098;6.168;2023-04-15T03:33:00;13.57;;;10.27;;
55720;SDS011;41626;53.098;6.168;2023-04-15T03:35:26;12.47;;;10.07;;
55720;SDS011;41626;53.098;6.168;2023-04-15T03:37:51;17.30;;;10.23;;
55720;SDS011;41626;53.098;6.168;2023-04-15T03:40:17;14.47;;;10.70;;
55720;SDS011;41626;53.098;6.168;2023-04-15T03:42:43;14.33;;;10.57;;
55720;SDS011;41626;53.098;6.168;2023-04-15T03:45:08;12.23;;;10.07;;
55720;SDS011;41626;53.098;6.168;2023-04-15T03:47:34;13.13;;;10.68;;
55720;SDS011;41626;53.098;6.168;2023-04-15T03:50:00;15.25;;;11.48;;
55720;SDS011;41626;53.098;6.168;2023-04-15T03:52:26;14.13;;;10.60;;
55720;SDS011;41626;53.098;6.168;2023-04-15T03:54:51;14.60;;;11.07;;
55720;SDS011;41626;53.098;6.168;2023-04-15T03:57:17;14.33;;;10.97;;
55720;SDS011;41626;53.098;6.168;2023-04-15T03:59:42;13.40;;;11.10;;
55720;SDS011;41626;53.098;6.168;2023-04-15T04:02:08;14.93;;;12.17;;
55720;SDS011;41626;53.098;6.168;2023-04-15T04:04:34;16.77;;;12.40;;
55720;SDS011;41626;53.098;6.168;2023-04-15T04:06:59;17.17;;;12.60;;
55720;SDS011;41626;53.098;6.168;2023-04-15T04:09:25;15.33;;;12.97;;
55720;SDS011;41626;53.098;6.168;2023-04-15T04:11:51;17.20;;;13.48;;
55720;SDS011;41626;53.098;6.168;2023-04-15T04:14:17;18.42;;;13.98;;
55720;SDS011;41626;53.098;6.168;2023-04-15T04:16:43;20.15;;;15.07;;
55720;SDS011;41626;53.098;6.168;2023-04-15T04:19:09;16.90;;;14.40;;
55720;SDS011;41626;53.098;6.168;2023-04-15T04:21:34;18.80;;;13.77;;
55720;SDS011;41626;53.098;6.168;2023-04-15T04:24:00;18.63;;;14.03;;
55720;SDS011;41626;53.098;6.168;2023-04-15T04:26:26;18.88;;;15.95;;
55720;SDS011;41626;53.098;6.168;2023-04-15T04:28:52;21.13;;;15.13;;
55720;SDS011;41626;53.098;6.168;2023-04-15T04:31:17;18.77;;;15.32;;
55720;SDS011;41626;53.098;6.168;2023-04-15T04:33:43;20.13;;;16.15;;
55720;SDS011;41626;53.098;6.168;2023-04-15T04:36:09;17.73;;;15.82;;
55720;SDS011;41626;53.098;6.168;2023-04-15T04:38:35;19.33;;;15.13;;
55720;SDS011;41626;53.098;6.168;2023-04-15T04:41:00;18.92;;;15.38;;
55720;SDS011;41626;53.098;6.168;2023-04-15T04:43:26;19.80;;;15.00;;
55720;SDS011;41626;53.098;6.168;2023-04-15T04:45:51;18.95;;;15.55;;
55720;SDS011;41626;53.098;6.168;2023-04-15T04:48:17;19.52;;;16.75;;
55720;SDS011;41626;53.098;6.168;2023-04-15T04:50:43;19.02;;;15.93;;
55720;SDS011;41626;53.098;6.168;2023-04-15T04:53:10;19.58;;;15.68;;
55720;SDS011;41626;53.098;6.168;2023-04-15T04:55:36;22.67;;;16.27;;
55720;SDS011;41626;53.098;6.168;2023-04-15T04:58:02;21.00;;;17.10;;
55720;SDS011;41626;53.098;6.168;2023-04-15T05:00:28;21.10;;;17.00;;
55720;SDS011;41626;53.098;6.168;2023-04-15T05:02:53;21.88;;;16.88;;
55720;SDS011;41626;53.098;6.168;2023-04-15T05:05:20;20.83;;;17.10;;
55720;SDS011;41626;53.098;6.168;2023-04-15T05:07:46;19.50;;;17.00;;
55720;SDS011;41626;53.098;6.168;2023-04-15T05:10:13;18.70;;;16.55;;
55720;SDS011;41626;53.098;6.168;2023-04-15T05:12:39;20.73;;;17.17;;
55720;SDS011;41626;53.098;6.168;2023-04-15T05:15:05;18.30;;;15.95;;
55720;SDS011;41626;53.098;6.168;2023-04-15T05:17:31;21.33;;;16.35;;
55720;SDS011;41626;53.098;6.168;2023-04-15T05:19:59;17.30;;;15.20;;
55720;SDS011;41626;53.098;6.168;2023-04-15T05:22:25;18.27;;;15.20;;
55720;SDS011;41626;53.098;6.168;2023-04-15T05:24:51;16.27;;;14.20;;
55720;SDS011;41626;53.098;6.168;2023-04-15T05:27:16;17.40;;;13.87;;
55720;SDS011;41626;53.098;6.168;2023-04-15T05:29:43;17.77;;;14.23;;
55720;SDS011;41626;53.098;6.168;2023-04-15T05:32:09;16.77;;;14.88;;
55720;SDS011;41626;53.098;6.168;2023-04-15T05:34:35;15.70;;;14.10;;
55720;SDS011;41626;53.098;6.168;2023-04-15T05:37:00;16.03;;;14.33;;
55720;SDS011;41626;53.098;6.168;2023-04-15T05:39:26;14.63;;;13.03;;
55720;SDS011;41626;53.098;6.168;2023-04-15T05:41:52;15.07;;;13.47;;
55720;SDS011;41626;53.098;6.168;2023-04-15T05:44:17;16.13;;;14.53;;
55720;SDS011;41626;53.098;6.168;2023-04-15T05:46:43;17.13;;;15.33;;
55720;SDS011;41626;53.098;6.168;2023-04-15T05:49:09;17.57;;;14.33;;
55720;SDS011;41626;53.098;6.168;2023-04-15T05:51:34;15.80;;;13.80;;
55720;SDS011;41626;53.098;6.168;2023-04-15T05:54:00;16.00;;;14.40;;
55720;SDS011;41626;53.098;6.168;2023-04-15T05:56:26;15.73;;;13.07;;
55720;SDS011;41626;53.098;6.168;2023-04-15T05:58:52;15.40;;;13.30;;
55720;SDS011;41626;53.098;6.168;2023-04-15T06:01:17;14.37;;;12.33;;
55720;SDS011;41626;53.098;6.168;2023-04-15T06:03:43;14.77;;;12.50;;
55720;SDS011;41626;53.098;6.168;2023-04-15T06:06:09;15.63;;;13.83;;
55720;SDS011;41626;53.098;6.168;2023-04-15T06:08:34;12.97;;;11.63;;
55720;SDS011;41626;53.098;6.168;2023-04-15T06:11:00;13.10;;;11.70;;
55720;SDS011;41626;53.098;6.168;2023-04-15T06:13:26;12.80;;;11.47;;
55720;SDS011;41626;53.098;6.168;2023-04-15T06:15:52;12.70;;;11.10;;
55720;SDS011;41626;53.098;6.168;2023-04-15T06:18:18;14.40;;;11.43;;
55720;SDS011;41626;53.098;6.168;2023-04-15T06:20:44;13.43;;;11.95;;
55720;SDS011;41626;53.098;6.168;2023-04-15T06:23:10;12.60;;;11.23;;
55720;SDS011;41626;53.098;6.168;2023-04-15T06:25:36;13.27;;;11.25;;
55720;SDS011;41626;53.098;6.168;2023-04-15T06:28:01;13.38;;;11.65;;
55720;SDS011;41626;53.098;6.168;2023-04-15T06:30:27;13.43;;;12.02;;
55720;SDS011;41626;53.098;6.168;2023-04-15T06:32:54;13.73;;;12.35;;
55720;SDS011;41626;53.098;6.168;2023-04-15T06:35:20;14.63;;;12.63;;
55720;SDS011;41626;53.098;6.168;2023-04-15T06:37:46;13.65;;;12.18;;
55720;SDS011;41626;53.098;6.168;2023-04-15T06:40:11;15.32;;;13.25;;
55720;SDS011;41626;53.098;6.168;2023-04-15T06:42:37;13.85;;;12.02;;
55720;SDS011;41626;53.098;6.168;2023-04-15T06:45:03;16.53;;;14.00;;
55720;SDS011;41626;53.098;6.168;2023-04-15T06:47:29;14.90;;;13.38;;
55720;SDS011;41626;53.098;6.168;2023-04-15T06:49:55;14.90;;;12.13;;
55720;SDS011;41626;53.098;6.168;2023-04-15T06:52:21;13.57;;;11.80;;
55720;SDS011;41626;53.098;6.168;2023-04-15T06:54:46;15.50;;;12.38;;
55720;SDS011;41626;53.098;6.168;2023-04-15T06:57:12;15.40;;;12.10;;
55720;SDS011;41626;53.098;6.168;2023-04-15T06:59:38;16.15;;;11.82;;
55720;SDS011;41626;53.098;6.168;2023-04-15T07:02:03;14.53;;;12.63;;
55720;SDS011;41626;53.098;6.168;2023-04-15T07:04:29;17.33;;;12.37;;
55720;SDS011;41626;53.098;6.168;2023-04-15T07:06:55;13.73;;;11.60;;
55720;SDS011;41626;53.098;6.168;2023-04-15T07:09:22;15.20;;;11.88;;
55720;SDS011;41626;53.098;6.168;2023-04-15T07:11:48;13.45;;;10.95;;
55720;SDS011;41626;53.098;6.168;2023-04-15T07:14:13;14.15;;;11.00;;
55720;SDS011;41626;53.098;6.168;2023-04-15T07:16:39;13.13;;;11.02;;
55720;SDS011;41626;53.098;6.168;2023-04-15T07:19:05;12.67;;;10.87;;
55720;SDS011;41626;53.098;6.168;2023-04-15T07:21:30;13.33;;;11.37;;
55720;SDS011;41626;53.098;6.168;2023-04-15T07:23:56;12.47;;;10.87;;
55720;SDS011;41626;53.098;6.168;2023-04-15T07:26:22;11.57;;;10.38;;
55720;SDS011;41626;53.098;6.168;2023-04-15T07:28:48;13.07;;;10.95;;
55720;SDS011;41626;53.098;6.168;2023-04-15T07:31:14;14.70;;;11.52;;
55720;SDS011;41626;53.098;6.168;2023-04-15T07:33:41;12.50;;;10.55;;
55720;SDS011;41626;53.098;6.168;2023-04-15T07:36:06;11.75;;;10.00;;
55720;SDS011;41626;53.098;6.168;2023-04-15T07:38:32;9.52;;;8.05;;
55720;SDS011;41626;53.098;6.168;2023-04-15T07:40:58;9.65;;;8.68;;
55720;SDS011;41626;53.098;6.168;2023-04-15T07:43:23;9.73;;;8.10;;
55720;SDS011;41626;53.098;6.168;2023-04-15T07:45:49;11.43;;;8.30;;
55720;SDS011;41626;53.098;6.168;2023-04-15T07:48:15;10.10;;;7.57;;
55720;SDS011;41626;53.098;6.168;2023-04-15T07:50:40;9.17;;;7.60;;
55720;SDS011;41626;53.098;6.168;2023-04-15T07:53:06;8.25;;;6.75;;
55720;SDS011;41626;53.098;6.168;2023-04-15T07:55:33;7.90;;;6.53;;
55720;SDS011;41626;53.098;6.168;2023-04-15T07:57:59;7.47;;;5.53;;
55720;SDS011;41626;53.098;6.168;2023-04-15T08:00:24;7.50;;;5.90;;
55720;SDS011;41626;53.098;6.168;2023-04-15T08:02:50;6.70;;;5.88;;
55720;SDS011;41626;53.098;6.168;2023-04-15T08:05:17;5.85;;;5.25;;
55720;SDS011;41626;53.098;6.168;2023-04-15T08:07:43;6.43;;;4.63;;
55720;SDS011;41626;53.098;6.168;2023-04-15T08:10:09;6.47;;;5.65;;
55720;SDS011;41626;53.098;6.168;2023-04-15T08:12:36;4.63;;;4.10;;
55720;SDS011;41626;53.098;6.168;2023-04-15T08:15:02;5.20;;;3.97;;
55720;SDS011;41626;53.098;6.168;2023-04-15T08:17:28;5.85;;;4.00;;
55720;SDS011;41626;53.098;6.168;2023-04-15T08:19:53;4.83;;;4.00;;
55720;SDS011;41626;53.098;6.168;2023-04-15T08:22:19;5.63;;;3.60;;
55720;SDS011;41626;53.098;6.168;2023-04-15T08:24:45;4.60;;;3.90;;
55720;SDS011;41626;53.098;6.168;2023-04-15T08:27:10;5.90;;;3.72;;
55720;SDS011;41626;53.098;6.168;2023-04-15T08:29:36;6.28;;;3.78;;
55720;SDS011;41626;53.098;6.168;2023-04-15T08:32:02;5.95;;;4.15;;
55720;SDS011;41626;53.098;6.168;2023-04-15T08:34:28;7.00;;;4.70;;
55720;SDS011;41626;53.098;6.168;2023-04-15T08:36:54;6.10;;;3.90;;
55720;SDS011;41626;53.098;6.168;2023-04-15T08:39:20;5.75;;;3.88;;
55720;SDS011;41626;53.098;6.168;2023-04-15T08:41:47;5.28;;;3.90;;
55720;SDS011;41626;53.098;6.168;2023-04-15T08:44:24;7.22;;;4.57;;
55720;SDS011;41626;53.098;6.168;2023-04-15T08:46:53;6.28;;;4.47;;
55720;SDS011;41626;53.098;6.168;2023-04-15T08:49:21;5.80;;;3.88;;
55720;SDS011;41626;53.098;6.168;2023-04-15T08:51:51;4.80;;;3.13;;
55720;SDS011;41626;53.098;6.168;2023-04-15T08:54:17;5.50;;;4.03;;
55720;SDS011;41626;53.098;6.168;2023-04-15T08:56:43;6.70;;;3.70;;
55720;SDS011;41626;53.098;6.168;2023-04-15T08:59:09;7.20;;;4.10;;
55720;SDS011;41626;53.098;6.168;2023-04-15T09:01:36;5.53;;;4.05;;
55720;SDS011;41626;53.098;6.168;2023-04-15T09:04:02;4.93;;;3.00;;
55720;SDS011;41626;53.098;6.168;2023-04-15T09:06:31;5.28;;;3.50;;
55720;SDS011;41626;53.098;6.168;2023-04-15T09:08:57;5.78;;;3.00;;
55720;SDS011;41626;53.098;6.168;2023-04-15T09:11:23;4.60;;;3.07;;
55720;SDS011;41626;53.098;6.168;2023-04-15T09:13:49;7.22;;;3.72;;
55720;SDS011;41626;53.098;6.168;2023-04-15T09:16:15;4.47;;;3.10;;
55720;SDS011;41626;53.098;6.168;2023-04-15T09:18:41;6.10;;;3.00;;
55720;SDS011;41626;53.098;6.168;2023-04-15T09:21:08;3.83;;;2.28;;
55720;SDS011;41626;53.098;6.168;2023-04-15T09:23:36;3.60;;;2.28;;
55720;SDS011;41626;53.098;6.168;2023-04-15T09:26:03;4.40;;;2.70;;
55720;SDS011;41626;53.098;6.168;2023-04-15T09:28:29;5.75;;;2.80;;
55720;SDS011;41626;53.098;6.168;2023-04-15T09:30:58;5.38;;;2.17;;
55720;SDS011;41626;53.098;6.168;2023-04-15T09:33:25;6.95;;;3.15;;
55720;SDS011;41626;53.098;6.168;2023-04-15T09:35:59;4.97;;;2.47;;
55720;SDS011;41626;53.098;6.168;2023-04-15T09:38:25;3.47;;;2.38;;
55720;SDS011;41626;53.098;6.168;2023-04-15T09:40:52;4.30;;;2.40;;
55720;SDS011;41626;53.098;6.168;2023-04-15T09:43:17;5.82;;;2.58;;
55720;SDS011;41626;53.098;6.168;2023-04-15T09:45:46;6.70;;;2.43;;
55720;SDS011;41626;53.098;6.168;2023-04-15T09:48:14;8.97;;;2.20;;
55720;SDS011;41626;53.098;6.168;2023-04-15T09:50:47;3.28;;;2.03;;
55720;SDS011;41626;53.098;6.168;2023-04-15T09:53:15;6.30;;;2.30;;
55720;SDS011;41626;53.098;6.168;2023-04-15T09:55:51;5.80;;;1.83;;
55720;SDS011;41626;53.098;6.168;2023-04-15T09:58:21;5.20;;;2.28;;
55720;SDS011;41626;53.098;6.168;2023-04-15T10:00:58;3.83;;;1.50;;
55720;SDS011;41626;53.098;6.168;2023-04-15T10:03:26;2.25;;;1.50;;
55720;SDS011;41626;53.098;6.168;2023-04-15T10:05:54;2.08;;;1.50;;
55720;SDS011;41626;53.098;6.168;2023-04-15T10:08:22;2.93;;;1.23;;
55720;SDS011;41626;53.098;6.168;2023-04-15T10:10:49;4.18;;;1.40;;
55720;SDS011;41626;53.098;6.168;2023-04-15T10:13:19;5.35;;;1.30;;
55720;SDS011;41626;53.098;6.168;2023-04-15T10:15:50;3.25;;;1.10;;
55720;SDS011;41626;53.098;6.168;2023-04-15T10:18:24;2.42;;;1.50;;
55720;SDS011;41626;53.098;6.168;2023-04-15T10:20:51;3.70;;;1.40;;
55720;SDS011;41626;53.098;6.168;2023-04-15T10:23:18;3.70;;;1.05;;
55720;SDS011;41626;53.098;6.168;2023-04-15T10:25:45;2.58;;;1.00;;
55720;SDS011;41626;53.098;6.168;2023-04-15T10:28:11;1.95;;;0.88;;
55720;SDS011;41626;53.098;6.168;2023-04-15T10:30:38;3.20;;;1.10;;
55720;SDS011;41626;53.098;6.168;2023-04-15T10:33:04;3.13;;;1.33;;
55720;SDS011;41626;53.098;6.168;2023-04-15T10:35:31;4.57;;;1.73;;
55720;SDS011;41626;53.098;6.168;2023-04-15T10:38:00;1.67;;;0.70;;
55720;SDS011;41626;53.098;6.168;2023-04-15T10:42:56;3.03;;;1.17;;
55720;SDS011;41626;53.098;6.168;2023-04-15T10:45:24;3.28;;;0.80;;
55720;SDS011;41626;53.098;6.168;2023-04-15T10:47:57;3.97;;;1.10;;
55720;SDS011;41626;53.098;6.168;2023-04-15T10:50:25;2.10;;;1.00;;
55720;SDS011;41626;53.098;6.168;2023-04-15T10:52:52;3.10;;;1.30;;
55720;SDS011;41626;53.098;6.168;2023-04-15T10:55:19;2.33;;;0.90;;
55720;SDS011;41626;53.098;6.168;2023-04-15T10:57:46;2.97;;;1.00;;
55720;SDS011;41626;53.098;6.168;2023-04-15T11:00:17;3.08;;;1.20;;
55720;SDS011;41626;53.098;6.168;2023-04-15T11:02:50;3.47;;;1.73;;
55720;SDS011;41626;53.098;6.168;2023-04-15T11:08:14;7.63;;;1.83;;
55720;SDS011;41626;53.098;6.168;2023-04-15T11:15:36;4.22;;;1.33;;
55720;SDS011;41626;53.098;6.168;2023-04-15T11:18:09;3.67;;;1.33;;
55720;SDS011;41626;53.098;6.168;2023-04-15T11:20:37;5.10;;;1.20;;
55720;SDS011;41626;53.098;6.168;2023-04-15T11:23:05;3.30;;;1.15;;
55720;SDS011;41626;53.098;6.168;2023-04-15T11:25:32;4.40;;;1.83;;
55720;SDS011;41626;53.098;6.168;2023-04-15T11:27:59;4.22;;;1.50;;
55720;SDS011;41626;53.098;6.168;2023-04-15T11:30:26;4.57;;;1.87;;
55720;SDS011;41626;53.098;6.168;2023-04-15T11:32:56;3.95;;;1.52;;
55720;SDS011;41626;53.098;6.168;2023-04-15T11:35:23;5.63;;;1.73;;
55720;SDS011;41626;53.098;6.168;2023-04-15T11:37:49;5.17;;;2.57;;
55720;SDS011;41626;53.098;6.168;2023-04-15T11:40:15;8.32;;;2.20;;
55720;SDS011;41626;53.098;6.168;2023-04-15T11:42:45;6.50;;;2.03;;
55720;SDS011;41626;53.098;6.168;2023-04-15T11:45:12;5.05;;;1.60;;
55720;SDS011;41626;53.098;6.168;2023-04-15T11:47:42;4.88;;;1.67;;
55720;SDS011;41626;53.098;6.168;2023-04-15T11:50:17;6.57;;;1.90;;
55720;SDS011;41626;53.098;6.168;2023-04-15T11:55:20;10.65;;;2.38;;
55720;SDS011;41626;53.098;6.168;2023-04-15T11:57:49;6.63;;;2.05;;
55720;SDS011;41626;53.098;6.168;2023-04-15T12:00:35;6.53;;;1.73;;
55720;SDS011;41626;53.098;6.168;2023-04-15T12:03:11;5.53;;;1.60;;
55720;SDS011;41626;53.098;6.168;2023-04-15T12:11:45;4.20;;;2.55;;
55720;SDS011;41626;53.098;6.168;2023-04-15T12:14:19;4.93;;;1.50;;
55720;SDS011;41626;53.098;6.168;2023-04-15T12:16:50;9.82;;;2.92;;
55720;SDS011;41626;53.098;6.168;2023-04-15T12:20:00;4.90;;;1.70;;
55720;SDS011;41626;53.098;6.168;2023-04-15T12:22:11;8.60;;;2.15;;
55720;SDS011;41626;53.098;6.168;2023-04-15T12:24:38;7.55;;;1.67;;
55720;SDS011;41626;53.098;6.168;2023-04-15T12:27:08;8.18;;;2.50;;
55720;SDS011;41626;53.098;6.168;2023-04-15T12:29:36;7.05;;;1.90;;
55720;SDS011;41626;53.098;6.168;2023-04-15T12:32:09;9.43;;;2.10;;
55720;SDS011;41626;53.098;6.168;2023-04-15T12:34:37;7.45;;;1.83;;
55720;SDS011;41626;53.098;6.168;2023-04-15T12:37:06;9.88;;;1.88;;
55720;SDS011;41626;53.098;6.168;2023-04-15T12:39:37;13.17;;;2.80;;
55720;SDS011;41626;53.098;6.168;2023-04-15T12:42:05;10.23;;;2.33;;
55720;SDS011;41626;53.098;6.168;2023-04-15T12:44:31;8.75;;;2.47;;
55720;SDS011;41626;53.098;6.168;2023-04-15T12:46:57;8.65;;;1.95;;
55720;SDS011;41626;53.098;6.168;2023-04-15T12:49:26;8.40;;;1.40;;
55720;SDS011;41626;53.098;6.168;2023-04-15T12:51:56;6.28;;;1.40;;
55720;SDS011;41626;53.098;6.168;2023-04-15T12:54:24;5.18;;;1.65;;
55720;SDS011;41626;53.098;6.168;2023-04-15T12:56:50;6.75;;;1.80;;
55720;SDS011;41626;53.098;6.168;2023-04-15T12:59:16;10.55;;;1.90;;
55720;SDS011;41626;53.098;6.168;2023-04-15T13:01:43;7.57;;;1.77;;
55720;SDS011;41626;53.098;6.168;2023-04-15T13:04:09;10.10;;;2.37;;
55720;SDS011;41626;53.098;6.168;2023-04-15T13:06:35;7.82;;;2.25;;
55720;SDS011;41626;53.098;6.168;2023-04-15T13:09:02;11.68;;;1.90;;
55720;SDS011;41626;53.098;6.168;2023-04-15T13:11:29;9.00;;;2.25;;
55720;SDS011;41626;53.098;6.168;2023-04-15T13:13:55;12.70;;;1.98;;
55720;SDS011;41626;53.098;6.168;2023-04-15T13:16:22;8.25;;;1.80;;
55720;SDS011;41626;53.098;6.168;2023-04-15T13:18:48;6.72;;;1.35;;
55720;SDS011;41626;53.098;6.168;2023-04-15T13:21:14;8.85;;;2.53;;
55720;SDS011;41626;53.098;6.168;2023-04-15T13:23:41;9.75;;;1.83;;
55720;SDS011;41626;53.098;6.168;2023-04-15T13:26:06;10.68;;;2.00;;
55720;SDS011;41626;53.098;6.168;2023-04-15T13:28:32;10.52;;;2.13;;
55720;SDS011;41626;53.098;6.168;2023-04-15T13:30:58;11.30;;;2.20;;
55720;SDS011;41626;53.098;6.168;2023-04-15T13:33:24;10.88;;;3.45;;
55720;SDS011;41626;53.098;6.168;2023-04-15T13:35:50;8.85;;;1.95;;
55720;SDS011;41626;53.098;6.168;2023-04-15T13:38:16;9.80;;;3.33;;
55720;SDS011;41626;53.098;6.168;2023-04-15T13:40:41;10.03;;;3.10;;
55720;SDS011;41626;53.098;6.168;2023-04-15T13:43:07;7.57;;;1.70;;
55720;SDS011;41626;53.098;6.168;2023-04-15T13:45:33;13.57;;;3.00;;
55720;SDS011;41626;53.098;6.168;2023-04-15T13:47:58;11.80;;;2.87;;
55720;SDS011;41626;53.098;6.168;2023-04-15T13:50:24;10.40;;;1.90;;
55720;SDS011;41626;53.098;6.168;2023-04-15T13:52:50;7.25;;;1.70;;
55720;SDS011;41626;53.098;6.168;2023-04-15T13:55:15;6.53;;;1.70;;
55720;SDS011;41626;53.098;6.168;2023-04-15T13:57:41;9.20;;;2.30;;
55720;SDS011;41626;53.098;6.168;2023-04-15T14:00:07;12.20;;;2.95;;
55720;SDS011;41626;53.098;6.168;2023-04-15T14:02:33;8.02;;;1.92;;
55720;SDS011;41626;53.098;6.168;2023-04-15T14:04:59;13.88;;;2.70;;
55720;SDS011;41626;53.098;6.168;2023-04-15T14:07:24;9.27;;;1.75;;
55720;SDS011;41626;53.098;6.168;2023-04-15T14:09:50;11.85;;;2.17;;
55720;SDS011;41626;53.098;6.168;2023-04-15T14:12:16;11.63;;;2.30;;
55720;SDS011;41626;53.098;6.168;2023-04-15T14:14:41;8.02;;;1.90;;
55720;SDS011;41626;53.098;6.168;2023-04-15T14:17:07;10.48;;;3.13;;
55720;SDS011;41626;53.098;6.168;2023-04-15T14:19:33;11.65;;;2.40;;
55720;SDS011;41626;53.098;6.168;2023-04-15T14:21:59;6.20;;;1.55;;
55720;SDS011;41626;53.098;6.168;2023-04-15T14:24:25;13.63;;;2.92;;
55720;SDS011;41626;53.098;6.168;2023-04-15T14:26:51;7.47;;;1.90;;
55720;SDS011;41626;53.098;6.168;2023-04-15T14:29:17;8.45;;;1.73;;
55720;SDS011;41626;53.098;6.168;2023-04-15T14:31:43;11.70;;;2.33;;
55720;SDS011;41626;53.098;6.168;2023-04-15T14:34:09;8.13;;;2.97;;
55720;SDS011;41626;53.098;6.168;2023-04-15T14:36:35;11.50;;;2.50;;
55720;SDS011;41626;53.098;6.168;2023-04-15T14:39:01;8.97;;;2.30;;
55720;SDS011;41626;53.098;6.168;2023-04-15T14:41:28;9.43;;;2.53;;
55720;SDS011;41626;53.098;6.168;2023-04-15T14:43:54;8.77;;;2.92;;
55720;SDS011;41626;53.098;6.168;2023-04-15T14:46:20;12.30;;;2.97;;
55720;SDS011;41626;53.098;6.168;2023-04-15T14:48:46;9.05;;;2.10;;
55720;SDS011;41626;53.098;6.168;2023-04-15T14:51:12;10.20;;;1.58;;